• Join FlightAware (Why Join?)
  • Login
  • US Flag 
11:42AM EST


 

Airport Tracker/Info


-or-


 

Live Flight TrackerFlight Track Log ✈ JZA7907 ✈ 17-Jul-2014 ✈ CYYZ - KCLE

Flight Track Log - Related Links

Times and Time Zones

All times are in EDT time to prevent confusion due to time zone crossing. See the JZA7907 flight status page for this flight to view local times or setup timezone preferences in your user account.

Time Position Orientation Groundspeed Altitude Reporting Facility
EDT Latitude Longitude Course Direction KTS MPH feet Rate Location/Type
08:31PM 43.6000 -79.6167 180° South 160 184 2,800  Level Toronto Center
08:32PM 43.5500 -79.6167 180° South 160 184 3,900 600 Climbing Toronto Center
08:33PM 43.5000 -79.6333 194° South 190 219 4,000 540 Climbing Toronto Center
08:34PM 43.4031 -79.9105 180° South  Level Estimated
08:34PM 43.4500 -79.6500 194° South 200 230 5,000  Level Toronto Center
08:35PM 43.3482 -79.9661 180° South  Level Estimated
08:35PM 43.4000 -79.6500 180° South 190 219 6,300  Level Toronto Center
08:36PM 43.3333 -79.6833 200° South 190 219 7,400 1,140 Climbing Toronto Center
08:37PM 43.3000 -79.7000 200° South 190 219 8,600 1,140 Climbing Toronto Center
08:38PM 43.2333 -79.7167 190° South 190 219 9,700 1,140 Climbing Toronto Center
08:39PM 43.1833 -79.7500 206° Southwest 190 219 10,900 1,020 Climbing Toronto Center
08:40PM 43.1500 -79.7667 200° South 190 219 11,800 960 Climbing Toronto Center
08:41PM 43.0833 -79.8000 200° South 200 230 12,900 1,020 Climbing Toronto Center
08:42PM 43.0333 -79.8167 194° South 200 230 13,900 1,020 Climbing Toronto Center
08:43PM 43.0000 -79.8667 228° Southwest 190 219 15,000 960 Climbing Toronto Center
08:44PM 42.9500 -79.9000 206° Southwest 190 219 15,900 480 Climbing Toronto Center
08:45PM 42.9000 -79.9500 216° Southwest 210 242 16,000  Climbing Toronto Center
08:46PM 42.8500 -80.0000 216° Southwest 230 265 16,000  Level Toronto Center
08:47PM 42.7956 -80.0642 221° Southwest 244 281 16,000  Level Cleveland Center
08:48PM 42.7353 -80.1172 213° Southwest 252 290 16,000  Level Cleveland Center
08:49PM 42.6742 -80.1700 212° Southwest 256 295 16,000  Level Cleveland Center
08:50PM 42.6033 -80.2331 213° Southwest 256 295 16,000  Level Cleveland Center
08:51PM 42.5417 -80.2858 212° Southwest 258 297 16,000  Level Cleveland Center
08:52PM 42.4806 -80.3394 213° Southwest 258 297 16,000  Level Cleveland Center
08:53PM 42.4194 -80.3944 214° Southwest 259 298 16,000  Level Cleveland Center
08:54PM 42.3586 -80.4456 212° Southwest 259 298 16,000  Level Cleveland Center
08:55PM 42.2986 -80.4992 213° Southwest 257 296 16,000  Level Cleveland Center
08:56PM 42.2378 -80.5497 212° Southwest 257 296 16,000  Level Cleveland Center
08:57PM 42.1772 -80.6033 213° Southwest 257 296 16,000  Level Cleveland Center
08:58PM 42.1061 -80.6628 212° Southwest 256 295 16,000  Level Cleveland Center
08:59PM 42.0450 -80.7142 212° Southwest 256 295 16,000 -360 Level Cleveland Center
09:00PM 41.9839 -80.7689 214° Southwest 258 297 15,300 -840 Descending Cleveland Center
09:01PM 41.9153 -80.8250 211° Southwest 281 323 14,300 -1,080 Descending Cleveland Center
09:02PM 41.8611 -80.8719 213° Southwest 291 335 13,500 -1,020 Descending Cleveland Center
09:02PM 41.8469 -80.8836 212° Southwest 284 327 13,300 -1,020 Descending Cleveland Center
09:03PM 41.7822 -80.9386 212° Southwest 288 331 12,300 -1,260 Descending Cleveland Center
09:04PM 41.7133 -80.9989 213° Southwest 284 327 10,800 -1,440 Descending Cleveland Center
09:05PM 41.6772 -81.0881 242° Southwest 268 308 9,400 -1,500 Descending Cleveland Center
09:05PM 41.6764 -81.0875 154° Southeast 272 313 9,300 -420 Descending Cleveland Center
09:06PM 41.6447 -81.1725 244° Southwest 260 299 9,000 -300 Descending Cleveland Center
09:06PM 41.6383 -81.1869 239° Southwest 263 303 9,000  Level Cleveland Center
09:07PM 41.6108 -81.2511 240° Southwest 239 275 9,000  Level Cleveland Center
09:07PM 41.6061 -81.2658 247° West 248 285 9,000  Level Cleveland Center
09:08PM 41.5753 -81.3417 241° Southwest 238 274 9,000  Level Cleveland Center
09:09PM 41.5436 -81.4197 242° Southwest 235 270 9,000  Level Cleveland Center
09:10PM 41.5117 -81.4964 241° Southwest 237 273 9,000  Level Cleveland Center
09:12PM 41.4803 -81.5742 242° Southwest 237 273 9,000 -960 Level Cleveland Center
09:13PM 41.4464 -81.6611 243° Southwest 242 278 7,100 -1,020 Descending Cleveland Center
09:14PM 41.4036 -81.7303 231° Southwest 226 260 7,000 -1,020 Descending Cleveland Center
09:15PM 41.3633 -81.7906 228° Southwest 222 255 5,000 -1,740 Descending Cleveland Center
09:16PM 41.3336 -81.8603 240° Southwest 187 215 3,400 -1,320 Descending Cleveland Center
09:17PM 41.3594 -81.8958 314° West 166 191 2,300 -1,200 Descending Cleveland Center
09:18PM 41.3933 -81.8831 16° North 146 168 1,000 -1,260 Descending Cleveland Center